createdAt,value
2023-02-11T00:00:41.999Z,9.52
2023-02-11T00:03:09.048Z,9.18
2023-02-11T00:05:35.505Z,9.55
2023-02-11T00:08:01.973Z,9.60
2023-02-11T00:10:28.313Z,9.40
2023-02-11T00:12:54.724Z,9.93
2023-02-11T00:15:21.318Z,9.88
2023-02-11T00:17:47.871Z,8.57
2023-02-11T00:20:14.365Z,9.80
2023-02-11T00:22:40.802Z,9.25
2023-02-11T00:25:07.298Z,9.15
2023-02-11T00:27:33.774Z,8.88
2023-02-11T00:30:02.271Z,9.15
2023-02-11T00:32:28.790Z,8.85
2023-02-11T00:34:55.478Z,9.02
2023-02-11T00:37:22.582Z,8.52
2023-02-11T00:39:50.159Z,9.00
2023-02-11T00:42:16.805Z,9.15
2023-02-11T00:44:43.296Z,9.02
2023-02-11T00:47:09.766Z,9.18
2023-02-11T00:49:36.898Z,7.93
2023-02-11T00:52:03.588Z,7.95
2023-02-11T00:54:30.113Z,8.32
2023-02-11T00:56:56.612Z,8.27
2023-02-11T00:59:23.034Z,8.80
2023-02-11T01:01:49.615Z,8.20
2023-02-11T01:04:16.140Z,8.40
2023-02-11T01:06:42.547Z,8.45
2023-02-11T01:09:09.025Z,8.10
2023-02-11T01:11:35.797Z,8.05
2023-02-11T01:14:02.415Z,7.80
2023-02-11T01:16:28.856Z,8.70
2023-02-11T01:18:55.349Z,9.00
2023-02-11T01:21:21.923Z,8.25
2023-02-11T01:23:48.417Z,8.27
2023-02-11T01:26:14.816Z,8.18
2023-02-11T01:28:41.580Z,8.65
2023-02-11T01:31:08.069Z,7.97
2023-02-11T01:33:34.591Z,7.63
2023-02-11T01:36:03.044Z,8.25
2023-02-11T01:38:30.689Z,8.27
2023-02-11T01:41:00.933Z,8.23
2023-02-11T01:43:31.027Z,7.95
2023-02-11T01:46:02.089Z,8.00
2023-02-11T01:48:34.099Z,7.25
2023-02-11T01:51:11.176Z,7.55
2023-02-11T01:53:58.149Z,8.18
2023-02-11T01:56:45.564Z,8.30
2023-02-11T01:59:22.567Z,7.63
2023-02-11T02:01:56.925Z,7.80
2023-02-11T02:04:31.345Z,7.65
2023-02-11T02:07:11.755Z,7.65
2023-02-11T02:09:44.217Z,7.75
2023-02-11T02:12:10.639Z,6.65
2023-02-11T02:14:41.386Z,6.75
2023-02-11T02:17:24.050Z,7.18
2023-02-11T02:19:56.488Z,6.35
2023-02-11T02:22:47.298Z,6.80
2023-02-11T02:25:20.320Z,6.95
2023-02-11T02:27:49.718Z,6.28
2023-02-11T02:30:46.694Z,7.90
2023-02-11T02:33:34.523Z,7.13
2023-02-11T02:36:28.328Z,7.18
2023-02-11T02:38:59.140Z,7.18
2023-02-11T02:41:30.486Z,7.57
2023-02-11T02:43:57.202Z,7.13
2023-02-11T02:46:28.289Z,7.18
2023-02-11T02:48:55.815Z,7.95
2023-02-11T02:51:55.659Z,7.40
2023-02-11T02:54:43.757Z,7.72
2023-02-11T02:57:16.034Z,7.55
2023-02-11T03:00:07.430Z,7.15
2023-02-11T03:03:08.779Z,7.22
2023-02-11T03:05:37.950Z,6.70
2023-02-11T03:08:18.503Z,7.95
2023-02-11T03:10:49.326Z,7.32
2023-02-11T03:13:18.730Z,7.43
2023-02-11T03:15:51.143Z,7.30
2023-02-11T03:18:21.902Z,7.13
2023-02-11T03:20:53.250Z,7.00
2023-02-11T03:23:44.314Z,6.13
2023-02-11T03:26:30.989Z,6.68
2023-02-11T03:29:24.083Z,7.70
2023-02-11T03:32:05.448Z,7.35
2023-02-11T03:34:44.112Z,7.55
2023-02-11T03:37:21.821Z,7.07
2023-02-11T03:40:11.778Z,6.72
2023-02-11T03:42:54.621Z,7.32
2023-02-11T03:45:23.587Z,6.80
2023-02-11T03:48:20.122Z,6.75
2023-02-11T03:50:49.479Z,6.95
2023-02-11T03:53:16.213Z,6.57
2023-02-11T03:55:43.834Z,6.90
2023-02-11T03:58:10.502Z,6.07
2023-02-11T04:00:39.803Z,6.80
2023-02-11T04:03:07.396Z,5.80
2023-02-11T04:05:34.046Z,5.88
2023-02-11T04:08:00.599Z,6.30
2023-02-11T04:10:27.104Z,5.53
2023-02-11T04:12:53.614Z,5.57
2023-02-11T04:15:20.020Z,5.60
2023-02-11T04:17:46.567Z,6.13
2023-02-11T04:20:13.052Z,5.05
2023-02-11T04:22:39.710Z,5.65
2023-02-11T04:25:06.479Z,5.55
2023-02-11T04:27:32.969Z,5.65
2023-02-11T04:29:59.439Z,4.88
2023-02-11T04:32:25.888Z,5.22
2023-02-11T04:34:52.392Z,5.20
2023-02-11T04:37:18.831Z,4.78
2023-02-11T04:39:45.268Z,5.90
2023-02-11T04:42:12.210Z,5.82
2023-02-11T04:44:38.639Z,5.60
2023-02-11T04:47:05.098Z,5.57
2023-02-11T04:49:31.546Z,5.18
2023-02-11T04:51:59.271Z,5.00
2023-02-11T04:54:25.686Z,5.10
2023-02-11T04:56:52.122Z,5.45
2023-02-11T04:59:18.680Z,5.47
2023-02-11T05:01:45.109Z,5.55
2023-02-11T05:04:11.572Z,5.25
2023-02-11T05:06:39.685Z,5.50
2023-02-11T05:09:06.472Z,5.15
2023-02-11T05:11:32.977Z,5.07
2023-02-11T05:13:59.613Z,5.05
2023-02-11T05:16:29.989Z,5.30
2023-02-11T05:18:56.633Z,5.40
2023-02-11T05:21:23.084Z,5.05
2023-02-11T05:23:49.643Z,4.45
2023-02-11T05:26:16.868Z,4.90
2023-02-11T05:28:44.471Z,5.07
2023-02-11T05:31:12.077Z,5.22
2023-02-11T05:33:38.560Z,4.93
2023-02-11T05:36:08.427Z,4.63
2023-02-11T05:38:35.548Z,5.88
2023-02-11T05:41:02.700Z,4.68
2023-02-11T05:43:29.219Z,5.20
2023-02-11T05:45:55.731Z,5.00
2023-02-11T05:48:22.118Z,5.00
2023-02-11T05:50:48.806Z,4.93
2023-02-11T05:53:15.363Z,5.18
2023-02-11T05:55:41.793Z,5.32
2023-02-11T05:58:09.810Z,5.40
2023-02-11T06:00:37.328Z,5.20
2023-02-11T06:03:06.976Z,5.85
2023-02-11T06:05:33.713Z,5.10
2023-02-11T06:08:00.410Z,5.15
2023-02-11T06:10:27.176Z,5.28
2023-02-11T06:12:54.057Z,5.38
2023-02-11T06:15:20.578Z,4.85
2023-02-11T06:17:47.981Z,4.65
2023-02-11T06:20:14.445Z,5.32
2023-02-11T06:22:40.980Z,5.47
2023-02-11T06:25:07.500Z,5.13
2023-02-11T06:27:33.961Z,4.63
2023-02-11T06:30:00.383Z,5.72
2023-02-11T06:32:44.054Z,5.53
2023-02-11T06:35:12.750Z,5.35
2023-02-11T06:37:40.023Z,5.35
2023-02-11T06:40:07.343Z,5.78
2023-02-11T06:42:39.078Z,5.97
2023-02-11T06:45:06.346Z,6.78
2023-02-11T06:47:32.982Z,5.78
2023-02-11T06:50:00.054Z,5.85
2023-02-11T06:52:26.563Z,5.65
2023-02-11T06:54:55.944Z,6.15
2023-02-11T06:57:29.204Z,6.00
2023-02-11T06:59:55.911Z,5.35
2023-02-11T07:02:22.515Z,6.05
2023-02-11T07:04:49.577Z,5.43
2023-02-11T07:07:15.965Z,5.30
2023-02-11T07:09:42.456Z,6.70
2023-02-11T07:12:11.735Z,5.95
2023-02-11T07:14:38.463Z,5.45
2023-02-11T07:17:05.192Z,5.82
2023-02-11T07:19:31.691Z,5.93
2023-02-11T07:21:58.250Z,5.13
2023-02-11T07:24:25.207Z,5.57
2023-02-11T07:26:53.311Z,5.95
2023-02-11T07:29:20.293Z,5.43
2023-02-11T07:31:46.938Z,5.13
2023-02-11T07:34:15.546Z,5.28
2023-02-11T07:36:43.879Z,5.78
2023-02-11T07:39:10.403Z,5.32
2023-02-11T07:41:38.073Z,4.80
2023-02-11T07:44:04.837Z,4.70
2023-02-11T07:46:31.290Z,5.03
2023-02-11T07:48:57.906Z,4.95
2023-02-11T07:51:27.283Z,5.35
2023-02-11T07:53:55.287Z,5.65
2023-02-11T07:56:22.435Z,5.20
2023-02-11T07:58:49.610Z,5.38
2023-02-11T08:01:25.857Z,5.65
2023-02-11T08:03:53.029Z,7.03
2023-02-11T08:06:20.963Z,6.10
2023-02-11T08:08:48.300Z,5.88
2023-02-11T08:11:24.351Z,6.38
2023-02-11T08:13:51.279Z,6.35
2023-02-11T08:16:39.011Z,6.97
2023-02-11T08:19:08.591Z,5.97
2023-02-11T08:21:35.039Z,5.93
2023-02-11T08:24:03.486Z,6.55
2023-02-11T08:26:32.802Z,6.32
2023-02-11T08:28:59.544Z,6.47
2023-02-11T08:31:29.379Z,6.20
2023-02-11T08:33:58.086Z,6.78
2023-02-11T08:36:29.932Z,6.32
2023-02-11T08:39:16.119Z,6.72
2023-02-11T08:41:45.403Z,5.72
2023-02-11T08:44:12.158Z,6.93
2023-02-11T08:46:38.595Z,6.03
2023-02-11T08:49:05.089Z,5.80
2023-02-11T08:51:31.564Z,6.43
2023-02-11T08:53:58.552Z,6.70
2023-02-11T08:56:25.612Z,7.28
2023-02-11T08:58:53.210Z,7.18
2023-02-11T09:01:23.349Z,7.18
2023-02-11T09:03:56.528Z,7.43
2023-02-11T09:06:23.990Z,6.65
2023-02-11T09:08:53.168Z,6.95
2023-02-11T09:11:24.657Z,6.10
2023-02-11T09:13:53.968Z,5.88
2023-02-11T09:16:23.991Z,6.53
2023-02-11T09:18:51.008Z,6.05
2023-02-11T09:21:19.100Z,7.25
2023-02-11T09:23:47.759Z,6.70
2023-02-11T09:26:20.218Z,7.03
2023-02-11T09:28:48.461Z,7.97
2023-02-11T09:31:17.474Z,7.75
2023-02-11T09:33:48.731Z,7.90
2023-02-11T09:36:21.328Z,7.60
2023-02-11T09:38:48.700Z,7.70
2023-02-11T09:41:24.142Z,7.75
2023-02-11T09:44:04.541Z,7.90
2023-02-11T09:46:35.282Z,8.07
2023-02-11T09:49:03.901Z,7.60
2023-02-11T09:51:51.539Z,8.32
2023-02-11T09:54:28.748Z,7.95
2023-02-11T09:56:55.188Z,7.70
2023-02-11T09:59:34.538Z,8.02
2023-02-11T10:02:09.824Z,8.07
2023-02-11T10:04:57.943Z,7.53
2023-02-11T10:07:51.387Z,6.57
2023-02-11T10:10:36.821Z,7.80
2023-02-11T10:13:24.950Z,7.63
2023-02-11T10:16:11.831Z,7.40
2023-02-11T10:19:11.326Z,7.78
2023-02-11T10:21:55.919Z,7.40
2023-02-11T10:24:22.418Z,7.50
2023-02-11T10:26:49.139Z,7.93
2023-02-11T10:29:35.470Z,8.10
2023-02-11T10:32:07.327Z,7.22
2023-02-11T10:34:34.688Z,7.85
2023-02-11T10:37:01.199Z,7.15
2023-02-11T10:39:28.259Z,8.20
2023-02-11T10:41:59.131Z,8.55
2023-02-11T10:44:39.916Z,7.80
2023-02-11T10:47:18.967Z,8.10
2023-02-11T10:49:46.932Z,8.57
2023-02-11T10:52:21.251Z,8.48
2023-02-11T10:55:15.235Z,8.10
2023-02-11T10:57:56.105Z,8.18
2023-02-11T11:00:41.059Z,9.00
2023-02-11T11:03:18.685Z,8.68
2023-02-11T11:05:58.393Z,9.15
2023-02-11T11:08:44.095Z,7.90
2023-02-11T11:11:16.441Z,8.35
2023-02-11T11:14:00.285Z,8.40
2023-02-11T11:16:32.074Z,9.20
2023-02-11T11:19:07.214Z,8.38
2023-02-11T11:21:40.748Z,8.02
2023-02-11T11:24:23.073Z,9.15
2023-02-11T11:26:56.955Z,8.52
2023-02-11T11:29:32.129Z,8.50
2023-02-11T11:32:04.394Z,9.25
2023-02-11T11:34:38.513Z,8.90
2023-02-11T11:37:22.581Z,9.40
2023-02-11T11:40:00.307Z,8.77
2023-02-11T11:42:35.314Z,9.77
2023-02-11T11:45:19.675Z,9.13
2023-02-11T11:48:11.180Z,9.20
2023-02-11T11:51:10.988Z,8.90
2023-02-11T11:53:45.097Z,9.65
2023-02-11T11:56:16.215Z,9.60
2023-02-11T11:58:42.787Z,9.60
2023-02-11T12:01:21.030Z,9.52
2023-02-11T12:04:03.166Z,8.82
2023-02-11T12:06:57.021Z,8.77
2023-02-11T12:09:32.374Z,9.07
2023-02-11T12:12:17.899Z,8.80
2023-02-11T12:15:04.557Z,7.90
2023-02-11T12:18:05.230Z,8.95
2023-02-11T12:20:34.471Z,9.13
2023-02-11T12:23:28.944Z,8.85
2023-02-11T12:25:59.264Z,9.20
2023-02-11T12:28:44.785Z,8.20
2023-02-11T12:31:29.299Z,8.65
2023-02-11T12:34:05.736Z,10.02
2023-02-11T12:39:32.912Z,8.85
2023-02-11T12:42:25.930Z,10.07
2023-02-11T12:45:13.013Z,10.20
2023-02-11T12:47:58.124Z,9.45
2023-02-11T12:50:46.583Z,10.18
2023-02-11T12:53:28.223Z,8.93
2023-02-11T12:56:02.341Z,10.32
2023-02-11T12:58:44.610Z,9.57
2023-02-11T13:01:34.211Z,9.68
2023-02-11T13:04:26.856Z,10.90
2023-02-11T13:07:05.398Z,10.90
2023-02-11T13:09:58.540Z,10.68
2023-02-11T13:12:44.496Z,10.75
2023-02-11T13:15:15.245Z,10.40
2023-02-11T13:17:58.227Z,10.05
2023-02-11T13:20:47.735Z,10.13
2023-02-11T13:23:20.203Z,9.68
2023-02-11T13:26:04.843Z,9.63
2023-02-11T13:28:46.368Z,11.27
2023-02-11T13:31:16.016Z,11.45
2023-02-11T13:33:44.356Z,11.55
2023-02-11T13:36:14.471Z,11.10
2023-02-11T13:38:41.664Z,11.75
2023-02-11T13:41:30.537Z,11.52
2023-02-11T13:44:22.516Z,12.85
2023-02-11T13:47:02.360Z,12.43
2023-02-11T13:49:35.635Z,11.10
2023-02-11T13:52:06.350Z,11.57
2023-02-11T13:54:39.384Z,12.75
2023-02-11T13:57:30.188Z,11.07
2023-02-11T13:59:59.716Z,10.73
2023-02-11T14:02:53.909Z,11.98
2023-02-11T14:05:38.849Z,11.95
2023-02-11T14:08:36.868Z,11.95
2023-02-11T14:11:08.353Z,11.95
2023-02-11T14:13:36.974Z,10.60
2023-02-11T14:16:28.295Z,9.65
2023-02-11T14:19:02.408Z,9.07
2023-02-11T14:21:32.305Z,10.95
2023-02-11T14:24:01.532Z,10.43
2023-02-11T14:26:44.972Z,9.75
2023-02-11T14:29:18.196Z,10.93
2023-02-11T14:32:19.265Z,10.32
2023-02-11T14:35:00.398Z,10.95
2023-02-11T14:37:57.831Z,10.48
2023-02-11T14:42:55.435Z,10.35
2023-02-11T14:45:28.755Z,11.18
2023-02-11T14:48:03.410Z,11.73
2023-02-11T14:50:45.477Z,10.32
2023-02-11T14:53:22.550Z,10.82
2023-02-11T14:55:52.451Z,11.07
2023-02-11T14:58:23.053Z,10.27
2023-02-11T15:00:53.690Z,10.95
2023-02-11T15:03:41.220Z,10.45
2023-02-11T15:06:21.972Z,11.35
2023-02-11T15:08:54.563Z,9.93
2023-02-11T15:11:23.827Z,10.95
2023-02-11T15:13:52.139Z,11.63
2023-02-11T15:16:24.078Z,12.25
2023-02-11T15:18:57.031Z,11.20
2023-02-11T15:21:27.611Z,11.75
2023-02-11T15:24:03.504Z,11.07
2023-02-11T15:26:30.707Z,11.77
2023-02-11T15:28:57.365Z,11.38
2023-02-11T15:31:27.022Z,11.85
2023-02-11T15:33:54.532Z,12.30
2023-02-11T15:36:28.806Z,11.65
2023-02-11T15:39:35.437Z,11.57
2023-02-11T15:42:35.810Z,11.82
2023-02-11T15:45:15.273Z,12.13
2023-02-11T15:47:53.693Z,11.90
2023-02-11T15:50:29.525Z,11.90
2023-02-11T15:53:00.325Z,11.55
2023-02-11T15:55:29.686Z,12.88
2023-02-11T15:57:58.442Z,12.73
2023-02-11T16:00:33.855Z,11.90
2023-02-11T16:03:00.531Z,11.80
2023-02-11T16:05:34.646Z,10.88
2023-02-11T16:08:19.785Z,11.20
2023-02-11T16:10:58.777Z,11.65
2023-02-11T16:13:28.534Z,10.52
2023-02-11T16:16:04.799Z,12.00
2023-02-11T16:18:40.193Z,11.23
2023-02-11T16:21:16.109Z,10.77
2023-02-11T16:23:49.829Z,10.35
2023-02-11T16:26:36.105Z,11.57
2023-02-11T16:29:14.704Z,11.60
2023-02-11T16:31:45.051Z,10.73
2023-02-11T16:34:15.238Z,10.75
2023-02-11T16:36:42.458Z,11.35
2023-02-11T16:39:10.283Z,11.10
2023-02-11T16:41:36.845Z,11.57
2023-02-11T16:44:03.478Z,10.25
2023-02-11T16:46:31.978Z,11.43
2023-02-11T16:49:09.605Z,10.93
2023-02-11T16:51:39.911Z,11.32
2023-02-11T16:54:07.073Z,10.38
2023-02-11T16:56:33.499Z,11.02
2023-02-11T16:59:00.690Z,11.90
2023-02-11T17:01:27.180Z,11.30
2023-02-11T17:03:53.985Z,11.27
2023-02-11T17:06:20.449Z,11.30
2023-02-11T17:08:46.893Z,11.32
2023-02-11T17:11:16.711Z,11.98
2023-02-11T17:13:43.891Z,12.10
2023-02-11T17:16:18.064Z,12.15
2023-02-11T17:18:45.275Z,11.80
2023-02-11T17:21:12.128Z,11.63
2023-02-11T17:23:38.792Z,11.45
2023-02-11T17:26:06.079Z,12.10
2023-02-11T17:28:33.537Z,12.00
2023-02-11T17:31:01.226Z,11.65
2023-02-11T17:33:27.697Z,11.57
2023-02-11T17:35:54.465Z,11.63
2023-02-11T17:38:21.250Z,10.77
2023-02-11T17:40:56.964Z,11.18
2023-02-11T17:43:23.414Z,11.23
2023-02-11T17:45:50.312Z,11.20
2023-02-11T17:48:17.574Z,11.77
2023-02-11T17:50:43.996Z,10.98
2023-02-11T17:53:10.686Z,10.57
2023-02-11T17:55:38.877Z,10.70
2023-02-11T17:58:05.628Z,11.80
2023-02-11T18:00:32.575Z,11.52
2023-02-11T18:03:02.813Z,11.38
2023-02-11T18:05:34.478Z,11.02
2023-02-11T18:08:00.931Z,10.60
2023-02-11T18:10:27.489Z,10.43
2023-02-11T18:12:53.926Z,11.57
2023-02-11T18:15:20.404Z,12.05
2023-02-11T18:17:46.767Z,10.88
2023-02-11T18:20:13.684Z,11.90
2023-02-11T18:22:40.904Z,11.35
2023-02-11T18:25:08.665Z,10.27
2023-02-11T18:27:35.306Z,11.18
2023-02-11T18:30:01.824Z,10.82
2023-02-11T18:32:28.218Z,11.40
2023-02-11T18:34:54.585Z,11.27
2023-02-11T18:37:21.081Z,11.77
2023-02-11T18:39:47.570Z,11.57
2023-02-11T18:42:14.006Z,11.60
2023-02-11T18:44:40.436Z,10.70
2023-02-11T18:47:06.889Z,10.63
2023-02-11T18:49:35.649Z,11.45
2023-02-11T18:52:02.895Z,10.57
2023-02-11T18:54:29.493Z,11.38
2023-02-11T18:56:55.860Z,11.30
2023-02-11T18:59:22.233Z,11.05
2023-02-11T19:01:48.673Z,11.30
2023-02-11T19:04:19.755Z,10.60
2023-02-11T19:06:49.428Z,11.98
2023-02-11T19:09:18.387Z,11.60
2023-02-11T19:11:48.952Z,10.93
2023-02-11T19:14:18.822Z,11.02
2023-02-11T19:16:46.785Z,11.02
2023-02-11T19:19:13.905Z,11.40
2023-02-11T19:21:43.091Z,11.40
2023-02-11T19:24:10.045Z,11.65
2023-02-11T19:26:37.229Z,11.05
2023-02-11T19:29:05.373Z,11.65
2023-02-11T19:31:32.830Z,11.63
2023-02-11T19:34:00.361Z,11.93
2023-02-11T19:36:27.092Z,11.07
2023-02-11T19:38:53.976Z,10.95
2023-02-11T19:41:22.432Z,10.57
2023-02-11T19:43:52.939Z,10.63
2023-02-11T19:46:21.033Z,11.88
2023-02-11T19:48:48.469Z,10.23
2023-02-11T19:51:15.710Z,10.43
2023-02-11T19:53:43.271Z,10.93
2023-02-11T19:56:10.582Z,11.57
2023-02-11T19:58:38.446Z,10.90
2023-02-11T20:01:25.169Z,11.38
2023-02-11T20:03:53.763Z,11.20
2023-02-11T20:06:26.649Z,9.93
2023-02-11T20:08:58.921Z,10.57
2023-02-11T20:11:28.034Z,10.52
2023-02-11T20:13:55.061Z,11.88
2023-02-11T20:16:27.042Z,11.32
2023-02-11T20:19:00.808Z,10.55
2023-02-11T20:21:31.963Z,11.18
2023-02-11T20:23:59.280Z,11.00
2023-02-11T20:26:32.272Z,11.45
2023-02-11T20:29:02.198Z,11.57
2023-02-11T20:31:32.452Z,11.70
2023-02-11T20:34:00.007Z,10.65
2023-02-11T20:36:31.885Z,10.70
2023-02-11T20:38:59.890Z,11.35
2023-02-11T20:41:30.847Z,11.02
2023-02-11T20:43:59.262Z,11.93
2023-02-11T20:46:28.449Z,10.85
2023-02-11T20:48:56.325Z,10.55
2023-02-11T20:51:26.228Z,10.07
2023-02-11T20:53:53.054Z,11.57
2023-02-11T20:56:25.365Z,11.02
2023-02-11T20:58:52.011Z,11.95
2023-02-11T21:01:20.747Z,11.00
2023-02-11T21:03:53.776Z,10.27
2023-02-11T21:06:22.156Z,10.35
2023-02-11T21:08:48.662Z,10.85
2023-02-11T21:11:15.504Z,12.10
2023-02-11T21:13:42.695Z,10.70
2023-02-11T21:16:13.497Z,10.82
2023-02-11T21:18:40.015Z,10.18
2023-02-11T21:21:07.126Z,11.38
2023-02-11T21:23:34.621Z,10.80
2023-02-11T21:26:01.196Z,10.70
2023-02-11T21:28:28.047Z,11.57
2023-02-11T21:30:56.237Z,10.93
2023-02-11T21:33:24.842Z,10.85
2023-02-11T21:35:58.030Z,11.30
2023-02-11T21:38:25.520Z,9.80
2023-02-11T21:40:52.350Z,10.88
2023-02-11T21:43:19.158Z,10.43
2023-02-11T21:45:48.026Z,11.32
2023-02-11T21:48:15.169Z,11.40
2023-02-11T21:50:44.734Z,11.15
2023-02-11T21:53:12.096Z,12.02
2023-02-11T21:55:39.066Z,10.82
2023-02-11T21:58:06.559Z,11.55
2023-02-11T22:00:33.874Z,12.30
2023-02-11T22:03:00.794Z,12.10
2023-02-11T22:05:27.467Z,11.30
2023-02-11T22:07:53.919Z,11.35
2023-02-11T22:10:20.664Z,11.68
2023-02-11T22:12:47.141Z,10.82
2023-02-11T22:15:13.647Z,11.40
2023-02-11T22:17:40.055Z,11.80
2023-02-11T22:20:07.699Z,12.18
2023-02-11T22:22:35.256Z,12.05
2023-02-11T22:25:02.204Z,12.05
2023-02-11T22:27:28.609Z,11.98
2023-02-11T22:29:54.974Z,12.48
2023-02-11T22:32:21.552Z,11.23
2023-02-11T22:34:47.999Z,11.95
2023-02-11T22:37:15.051Z,11.35
2023-02-11T22:39:42.695Z,11.70
2023-02-11T22:42:09.493Z,11.52
2023-02-11T22:44:37.146Z,12.20
2023-02-11T22:47:03.733Z,11.90
2023-02-11T22:49:32.387Z,11.90
2023-02-11T22:51:59.356Z,11.73
2023-02-11T22:54:26.188Z,11.13
2023-02-11T22:56:53.301Z,11.48
2023-02-11T22:59:20.346Z,11.02
2023-02-11T23:01:46.927Z,10.75
2023-02-11T23:04:15.427Z,12.88
2023-02-11T23:06:41.864Z,11.43
2023-02-11T23:09:12.201Z,11.38
2023-02-11T23:11:39.299Z,12.07
2023-02-11T23:14:08.521Z,12.20
2023-02-11T23:16:35.087Z,12.43
2023-02-11T23:19:05.950Z,11.95
2023-02-11T23:21:34.803Z,11.63
2023-02-11T23:24:13.275Z,11.45
2023-02-11T23:26:41.151Z,11.55
2023-02-11T23:29:08.105Z,11.82
2023-02-11T23:31:40.326Z,11.25
2023-02-11T23:34:08.107Z,11.13
2023-02-11T23:36:34.855Z,12.07
2023-02-11T23:39:01.711Z,11.77
2023-02-11T23:41:28.353Z,11.55
2023-02-11T23:43:56.737Z,12.27
2023-02-11T23:46:24.931Z,11.65
2023-02-11T23:48:52.428Z,12.15
2023-02-11T23:51:19.862Z,10.82
2023-02-11T23:53:46.644Z,11.82
2023-02-11T23:56:19.520Z,11.13
2023-02-11T23:58:48.964Z,11.98
